Rothville, MO (64676)

10:47 AM CDT on October 31, 2014 (GMT -0500)
Barlow Back Yard | Change Station
CLOSE
Current Station
Personal Weather Station
Location: Hale, MO
Elevation: 755 ft
Nearby Weather Stations
Active Advisory: Freeze Warning

Elev 755 ft 39.59 °N, 93.30 °W | Updated 5 minutes ago

Clear
Clear
39.4 °F
Feels Like 33 °F
N
8.9
Wind Variable Wind from NNW

Today
High -- | Low -- °F
--% Chance of Precip.
Yesterday
High -- | Low -- °F
Precip. -- in
7:39 AM 6:11 PM
First Quarter, 56% visible
Pressure 30.45 in
Visibility 10.0 miles
Clouds Clear
Windchill 33 °F
Dew Point 24 °F
Humidity 53%
Rainfall 0.00 in
Snow Depth Not available.
UV 2 out of 12
Pollen 1.60 out of 12
Air Quality Not available.
Flu Activity Not available.
METAR KIRK 311455Z AUTO 36018G25KT 10SM CLR 02/M07 A3041 RMK AO2 SLP309 T00171067 51022

More Conditions Fewer Conditions

Pressure 30.45 in
Visibility 10.0 miles
Clouds Clear
Windchill 33 °F
Dew Point 24 °F
Humidity 53%
Rainfall 0.00 in
Snow Depth Not available.
UV 2 out of 12
Pollen 1.60 out of 12
Air Quality Not available.
Flu Activity Not available.
METAR KIRK 311455Z AUTO 36018G25KT 10SM CLR 02/M07 A3041 RMK AO2 SLP309 T00171067 51022

More Conditions Fewer Conditions

10-Day Weather Forecast

Almanac

Astronomy

Oct. 31, 2014 Rise Set
Actual Time
Civil Twilight
Nautical Twilight
Astronomical Twilight
Moon
Length of Visible Light
Length of Day
Tomorrow will be .
, % of the Moon is Illuminated

Today's Extremes

State Highs State Lows

Community

WunderPhotos

Upload Photos

1,766,644 photos uploaded!

WunderBlogs® & News

Nearby

Air Quality

  Air Quality AQ Index Pollutant
Not available.

Snow Depth

Station Depth Elevation

Earthquake Activity

City Distance Mag. Time & Date
Minimum magnitude displayed is 2.5.

Coastal Water Temperatures

Place Temperature

Nearby Weather Stations